createdAt,value
2022-08-26T14:23:14.386Z,951.630127
2022-08-26T14:24:13.968Z,951.6706543
2022-08-26T14:25:14.431Z,951.6881104
2022-08-26T14:26:28.784Z,951.6253662
2022-08-26T14:27:16.899Z,951.626709
2022-08-26T14:28:17.487Z,951.6523438
2022-08-26T14:29:17.851Z,951.6375122
2022-08-26T14:30:18.389Z,951.6402588
2022-08-26T14:31:18.905Z,951.7008667
2022-08-26T14:32:19.340Z,951.699707
2022-08-26T14:33:19.852Z,951.6886597
2022-08-26T14:34:20.278Z,951.6918945
2022-08-26T14:35:20.754Z,951.7017822
2022-08-26T14:36:21.225Z,951.8416138
2022-08-26T14:37:21.682Z,951.8872681
2022-08-26T14:38:22.166Z,951.8222046
2022-08-26T14:39:22.620Z,951.7614136
2022-08-26T14:40:23.095Z,951.6796265
2022-08-26T14:41:24.495Z,951.6482544
2022-08-26T14:42:25.034Z,951.6379395
2022-08-26T14:43:25.725Z,951.6534424
2022-08-26T14:44:25.986Z,951.5965576
2022-08-26T14:45:26.421Z,951.5359497
2022-08-26T14:46:27.718Z,951.5332642
2022-08-26T14:47:28.116Z,951.4794312
2022-08-26T14:48:28.577Z,951.4587402
2022-08-26T14:49:29.202Z,951.4064941
2022-08-26T14:50:29.654Z,951.3494263
2022-08-26T14:51:31.148Z,951.2843628
2022-08-26T14:52:31.662Z,951.291748
2022-08-26T14:53:32.240Z,951.2064209
2022-08-26T14:54:32.655Z,951.2145386
2022-08-26T14:55:33.095Z,951.1838379
2022-08-26T14:56:34.189Z,951.1679688
2022-08-26T14:58:05.091Z,951.1374512
2022-08-26T14:59:05.495Z,951.1172485
2022-08-26T15:00:06.020Z,951.0808105
2022-08-26T15:01:06.332Z,951.1257935
2022-08-26T15:02:07.047Z,951.0982666
2022-08-26T15:03:07.599Z,951.1278076
2022-08-26T15:04:07.894Z,951.189209
2022-08-26T15:05:08.317Z,951.2522583
2022-08-26T15:06:08.772Z,951.2824707
2022-08-26T15:07:09.907Z,951.2000122
2022-08-26T15:08:10.868Z,951.1983643
2022-08-26T15:09:10.850Z,951.2259521
2022-08-26T15:10:11.506Z,951.1402588
2022-08-26T15:11:11.969Z,951.1802368
2022-08-26T15:12:12.446Z,951.1479492
2022-08-26T15:13:12.919Z,951.1431274
2022-08-26T15:14:19.214Z,951.1040649
2022-08-26T15:15:14.323Z,951.09375
2022-08-26T15:16:14.816Z,951.0745239
2022-08-26T15:17:15.945Z,951.0608521
2022-08-26T15:18:16.454Z,951.0103149
2022-08-26T15:19:16.937Z,951.03125
2022-08-26T15:20:17.397Z,951.0340576
2022-08-26T15:21:17.814Z,951.0427856
2022-08-26T15:22:18.883Z,951.0153198
2022-08-26T15:23:19.338Z,951.0690918
2022-08-26T15:24:19.819Z,951.0982056
2022-08-26T15:25:20.194Z,951.1208496
2022-08-26T15:26:20.651Z,951.1199341
2022-08-26T15:27:21.891Z,951.1414795
2022-08-26T15:28:22.432Z,951.1626587
2022-08-26T15:29:22.856Z,951.1365356
2022-08-26T15:30:23.268Z,951.0992432
2022-08-26T15:31:23.746Z,951.1311035
2022-08-26T15:32:24.143Z,951.107666
2022-08-26T15:33:24.594Z,951.1034546
2022-08-26T15:34:25.086Z,951.0943604
2022-08-26T15:35:25.480Z,951.0925293
2022-08-26T15:36:25.920Z,951.0644531
2022-08-26T15:37:27.409Z,951.0465088
2022-08-26T15:38:27.867Z,951.0803223
2022-08-26T15:39:28.449Z,951.0085449
2022-08-26T15:40:29.027Z,951.0316162
2022-08-26T15:41:29.453Z,951.064209
2022-08-26T15:42:29.937Z,951.045166
2022-08-26T15:43:30.498Z,951.0145264
2022-08-26T15:44:31.143Z,951.0430298
2022-08-26T15:45:31.443Z,950.9914551
2022-08-26T15:46:31.906Z,951.0085449
2022-08-26T15:47:32.879Z,950.9777222
2022-08-26T15:49:03.834Z,950.9321899
2022-08-26T15:50:04.387Z,950.9285278
2022-08-26T15:51:04.777Z,950.9162598
2022-08-26T15:52:05.422Z,950.9224243
2022-08-26T15:53:05.710Z,950.9107666
2022-08-26T15:54:06.223Z,950.946167
2022-08-26T15:55:06.736Z,950.9787598
2022-08-26T15:56:07.132Z,951.0209961
2022-08-26T15:57:10.813Z,951.0567017
2022-08-26T15:58:08.087Z,951.0698242
2022-08-26T15:59:08.517Z,951.105957
2022-08-26T16:00:09.093Z,951.1074219
2022-08-26T16:01:09.468Z,951.1369629
2022-08-26T16:02:09.946Z,951.0864258
2022-08-26T16:03:10.330Z,951.1187744
2022-08-26T16:04:10.829Z,951.1218262
2022-08-26T16:05:11.538Z,951.1431274
2022-08-26T16:06:12.038Z,951.1329956
2022-08-26T16:07:13.139Z,951.1503906
2022-08-26T16:08:13.573Z,951.203064
2022-08-26T16:09:14.047Z,951.1889038
2022-08-26T16:10:14.562Z,951.1905518
2022-08-26T16:11:15.013Z,951.2202148
2022-08-26T16:13:16.702Z,951.1615601
2022-08-26T16:14:17.047Z,951.1669312
2022-08-26T16:15:17.533Z,951.1972656
2022-08-26T16:16:18.114Z,951.2182007
2022-08-26T16:17:19.141Z,951.2263794
2022-08-26T16:18:19.560Z,951.2368774
2022-08-26T16:19:20.034Z,951.2359619
2022-08-26T16:20:20.505Z,951.1955566
2022-08-26T16:21:21.881Z,951.2181396
2022-08-26T16:22:22.892Z,951.2539063
2022-08-26T16:23:23.321Z,951.2503052
2022-08-26T16:24:28.441Z,951.2651367
2022-08-26T16:25:24.282Z,951.2477417
2022-08-26T16:26:24.732Z,951.2210693
2022-08-26T16:27:26.153Z,951.2589111
2022-08-26T16:28:26.593Z,951.2770996
2022-08-26T16:29:27.037Z,951.2683105
2022-08-26T16:30:27.501Z,951.2930298
2022-08-26T16:31:27.969Z,951.3311157
2022-08-26T16:32:31.147Z,951.3275146
2022-08-26T16:33:29.182Z,951.3261108
2022-08-26T16:34:29.248Z,951.3490601
2022-08-26T16:35:29.735Z,951.368103
2022-08-26T16:36:30.114Z,951.3853149
2022-08-26T16:37:31.138Z,951.3598633
2022-08-26T16:38:31.610Z,951.4263916
2022-08-26T16:40:03.206Z,951.4209595
2022-08-26T16:41:03.574Z,951.4456787
2022-08-26T16:42:04.651Z,951.472168
2022-08-26T16:43:05.054Z,951.4506226
2022-08-26T16:44:05.488Z,951.4924927
2022-08-26T16:45:05.964Z,951.5024414
2022-08-26T16:46:07.405Z,951.4768677
2022-08-26T16:47:07.795Z,951.4710693
2022-08-26T16:48:09.043Z,951.465332
2022-08-26T16:49:09.282Z,951.4942017
2022-08-26T16:50:09.735Z,951.5137329
2022-08-26T16:51:10.221Z,951.5487671
2022-08-26T16:52:11.406Z,951.5274048
2022-08-26T16:54:12.234Z,951.5524902
2022-08-26T16:55:12.687Z,951.5427246
2022-08-26T16:56:13.148Z,951.5967407
2022-08-26T16:57:13.558Z,951.6166992
2022-08-26T16:58:13.961Z,951.5881348
2022-08-26T16:59:14.390Z,951.6166992
2022-08-26T17:00:14.820Z,951.6020508
2022-08-26T17:01:15.325Z,951.598877
2022-08-26T17:02:15.860Z,951.6207886
2022-08-26T17:03:17.172Z,951.6282959
2022-08-26T17:04:17.582Z,951.6681519
2022-08-26T17:05:18.009Z,951.6205444
2022-08-26T17:06:18.461Z,951.6049805
2022-08-26T17:07:18.947Z,951.5927124
2022-08-26T17:08:24.246Z,951.5951538
2022-08-26T17:09:19.831Z,951.5739136
2022-08-26T17:10:20.238Z,951.5939331
2022-08-26T17:11:20.701Z,951.5891113
2022-08-26T17:12:21.078Z,951.5627441
2022-08-26T17:13:31.615Z,951.5388794
2022-08-26T17:14:21.907Z,951.5614014
2022-08-26T17:15:22.331Z,951.5543823
2022-08-26T17:16:26.586Z,951.5526733
2022-08-26T17:17:24.162Z,951.5519409
2022-08-26T17:18:24.576Z,951.5290527
2022-08-26T17:19:25.018Z,951.5323486
2022-08-26T17:20:25.441Z,951.519043
2022-08-26T17:21:25.922Z,951.5298462
2022-08-26T17:22:29.537Z,951.5234375
2022-08-26T17:23:27.296Z,951.5021973
2022-08-26T17:24:27.743Z,951.5113525
2022-08-26T17:25:28.282Z,951.5300903
2022-08-26T17:26:28.805Z,951.4963989
2022-08-26T17:27:30.173Z,951.5326538
2022-08-26T17:28:31.180Z,951.531189
2022-08-26T17:29:31.612Z,951.5375977
2022-08-26T17:31:02.541Z,951.5614014
2022-08-26T17:32:02.918Z,951.5811157
2022-08-26T17:33:10.955Z,951.5843506
2022-08-26T17:34:03.796Z,951.5739136
2022-08-26T17:35:04.248Z,951.5778198
2022-08-26T17:36:04.673Z,951.5812378
2022-08-26T17:37:05.124Z,951.5827637
2022-08-26T17:38:05.648Z,951.5663452
2022-08-26T17:39:05.943Z,951.487793
2022-08-26T17:40:06.454Z,951.5257568
2022-08-26T17:41:06.797Z,951.5437622
2022-08-26T17:42:07.262Z,951.4909668
2022-08-26T17:43:12.108Z,951.4661865
2022-08-26T17:44:08.168Z,951.4623413
2022-08-26T17:45:08.691Z,951.4695435
2022-08-26T17:46:09.086Z,951.4447021
2022-08-26T17:47:09.502Z,951.4309082
2022-08-26T17:48:11.064Z,951.4248657
2022-08-26T17:49:11.477Z,951.4118652
2022-08-26T17:50:11.920Z,951.4104614
2022-08-26T17:51:13.173Z,951.4076538
2022-08-26T17:52:13.669Z,951.4154053
2022-08-26T17:53:18.559Z,951.4667358
2022-08-26T17:54:14.579Z,951.4963379
2022-08-26T17:55:15.029Z,951.5007935
2022-08-26T17:56:15.479Z,951.5064087
2022-08-26T17:57:15.940Z,951.4983521
2022-08-26T17:58:16.896Z,951.5
2022-08-26T17:59:17.305Z,951.5248413
2022-08-26T18:00:17.721Z,951.5123291
2022-08-26T18:01:18.194Z,951.5348511
2022-08-26T18:02:19.460Z,951.5765381
2022-08-26T18:03:19.907Z,951.5632935
2022-08-26T18:04:20.379Z,951.5882568
2022-08-26T18:05:20.753Z,951.5865479
2022-08-26T18:06:21.181Z,951.5979614
2022-08-26T18:07:21.621Z,951.6254883
2022-08-26T18:08:22.931Z,951.6559448
2022-08-26T18:09:23.361Z,951.6613159
2022-08-26T18:10:23.811Z,951.6882935
2022-08-26T18:11:24.242Z,951.7217407
2022-08-26T18:12:25.512Z,951.7681274
2022-08-26T18:13:25.622Z,951.8068848
2022-08-26T18:14:26.055Z,951.7988281
2022-08-26T18:15:26.514Z,951.8334351
2022-08-26T18:16:26.885Z,951.8509521
2022-08-26T18:17:27.327Z,951.8551636
2022-08-26T18:18:28.392Z,951.8934937
2022-08-26T18:19:28.924Z,951.8754883
2022-08-26T18:20:29.377Z,951.8696899
2022-08-26T18:21:29.813Z,951.854248
2022-08-26T18:22:30.282Z,951.8828125
2022-08-26T18:23:31.348Z,951.8584595
2022-08-26T18:25:01.810Z,951.8867188
2022-08-26T18:26:02.249Z,951.8826294
2022-08-26T18:27:02.697Z,951.882019
2022-08-26T18:28:03.703Z,951.8654785
2022-08-26T18:29:04.109Z,951.9249878
2022-08-26T18:30:04.524Z,951.927002
2022-08-26T18:31:05.067Z,951.9509888
2022-08-26T18:32:05.425Z,951.8917847
2022-08-26T18:33:05.943Z,951.8883057
2022-08-26T18:34:06.274Z,951.9048462
2022-08-26T18:35:06.702Z,951.8521729
2022-08-26T18:36:07.121Z,951.9265137
2022-08-26T18:38:11.441Z,951.8712769
2022-08-26T18:39:09.109Z,951.8543701
2022-08-26T18:40:09.598Z,951.8657837
2022-08-26T18:41:09.943Z,951.8568115
2022-08-26T18:42:10.405Z,951.8370361
2022-08-26T18:43:10.886Z,951.878418
2022-08-26T18:44:13.612Z,951.810791
2022-08-26T18:45:15.953Z,951.831543
2022-08-26T18:46:12.416Z,951.796875
2022-08-26T18:47:12.746Z,951.8135376
2022-08-26T18:48:13.201Z,951.8167114
2022-08-26T18:49:13.560Z,951.8078613
2022-08-26T18:50:13.995Z,951.8213501
2022-08-26T18:51:14.469Z,951.7572021
2022-08-26T18:52:15.412Z,951.7745361
2022-08-26T18:53:15.929Z,951.7915039
2022-08-26T18:54:17.212Z,951.7800293
2022-08-26T18:55:17.702Z,951.8147583
2022-08-26T18:56:18.755Z,951.7878418
2022-08-26T18:57:18.603Z,951.7576294
2022-08-26T18:58:19.736Z,951.8016357
2022-08-26T18:59:20.180Z,951.7785645
2022-08-26T19:00:20.691Z,951.7994385
2022-08-26T19:01:25.487Z,951.7765503
2022-08-26T19:02:21.984Z,951.7790527
2022-08-26T19:03:22.036Z,951.7451782
2022-08-26T19:04:22.480Z,951.7478027
2022-08-26T19:05:22.955Z,951.7644653
2022-08-26T19:06:23.513Z,951.7631226
2022-08-26T19:07:24.691Z,951.7856445
2022-08-26T19:08:25.718Z,951.7639771
2022-08-26T19:09:26.125Z,951.7921753
2022-08-26T19:10:26.626Z,951.788208
2022-08-26T19:11:32.311Z,951.8197021
2022-08-26T19:12:27.469Z,951.809082
2022-08-26T19:13:27.931Z,951.8214111
2022-08-26T19:14:28.388Z,951.8501587
2022-08-26T19:15:28.856Z,951.8381348
2022-08-26T19:16:29.329Z,951.8041992
2022-08-26T19:17:29.759Z,951.8052368
2022-08-26T19:18:30.272Z,951.7831421
2022-08-26T19:20:01.132Z,951.8474731
2022-08-26T19:21:01.593Z,951.7918701
2022-08-26T19:22:02.703Z,951.7935791
2022-08-26T19:23:10.502Z,951.8150024
2022-08-26T19:24:03.649Z,951.788269
2022-08-26T19:25:04.612Z,951.7990112
2022-08-26T19:26:05.090Z,951.7952881
2022-08-26T19:27:05.828Z,951.8151855
2022-08-26T19:28:06.271Z,951.8244019
2022-08-26T19:29:07.513Z,951.838623
2022-08-26T19:30:07.891Z,951.8149414
2022-08-26T19:31:08.386Z,951.857666
2022-08-26T19:32:08.822Z,951.8381958
2022-08-26T19:33:10.429Z,951.854248
2022-08-26T19:34:11.030Z,951.8740845
2022-08-26T19:35:11.739Z,951.8629761
2022-08-26T19:36:14.824Z,951.8656006
2022-08-26T19:37:12.627Z,951.8443604
2022-08-26T19:38:13.114Z,951.8675537
2022-08-26T19:39:14.456Z,951.878418
2022-08-26T19:40:14.981Z,951.829834
2022-08-26T19:41:15.346Z,951.8404541
2022-08-26T19:42:15.783Z,951.8004761
2022-08-26T19:43:16.972Z,951.7706299
2022-08-26T19:44:17.470Z,951.7677612
2022-08-26T19:45:24.578Z,951.7611694
2022-08-26T19:46:18.469Z,951.748291
2022-08-26T19:47:18.860Z,951.7120361
2022-08-26T19:48:19.319Z,951.7191162
2022-08-26T19:49:20.530Z,951.7298584
2022-08-26T19:50:20.949Z,951.7818604
2022-08-26T19:51:21.461Z,951.7764282
2022-08-26T19:52:21.994Z,951.8146973
2022-08-26T19:53:22.416Z,951.7781982
2022-08-26T19:54:22.912Z,951.8156128
2022-08-26T19:55:23.370Z,951.8175049
2022-08-26T19:56:23.995Z,951.8342896
2022-08-26T19:57:24.525Z,951.8245239
2022-08-26T19:58:25.700Z,951.8051758
2022-08-26T19:59:26.232Z,951.7822876
2022-08-26T20:00:26.658Z,951.8047485
2022-08-26T20:01:27.143Z,951.8100586
2022-08-26T20:02:27.634Z,951.7542114
2022-08-26T20:03:28.000Z,951.75177
2022-08-26T20:04:28.522Z,951.7642212
2022-08-26T20:05:29.014Z,951.777832
2022-08-26T20:06:29.451Z,951.7449951
2022-08-26T20:08:00.548Z,951.741333
2022-08-26T20:09:01.902Z,951.7486572
2022-08-26T20:10:02.440Z,951.7226563
2022-08-26T20:11:02.881Z,951.732666
2022-08-26T20:12:03.397Z,951.7022095
2022-08-26T20:13:03.858Z,951.7418823
2022-08-26T20:14:04.279Z,951.7459106
2022-08-26T20:15:04.795Z,951.7180176
2022-08-26T20:16:05.245Z,951.7299805
2022-08-26T20:17:05.752Z,951.7564087
2022-08-26T20:18:06.250Z,951.8035889
2022-08-26T20:19:07.440Z,951.8284912
2022-08-26T20:20:08.095Z,951.8114624
2022-08-26T20:21:08.508Z,951.78302
2022-08-26T20:22:09.738Z,951.8293457
2022-08-26T20:23:10.356Z,951.8192139
2022-08-26T20:24:10.822Z,951.850769
2022-08-26T20:25:11.586Z,951.8701782
2022-08-26T20:26:11.991Z,951.8675537
2022-08-26T20:27:12.446Z,951.8322144
2022-08-26T20:28:12.920Z,951.8423462
2022-08-26T20:29:13.960Z,951.8435669
2022-08-26T20:30:14.433Z,951.8501587
2022-08-26T20:31:14.862Z,951.8527222
2022-08-26T20:32:15.405Z,951.8602295
2022-08-26T20:33:15.802Z,951.855835
2022-08-26T20:34:16.235Z,951.8669434
2022-08-26T20:35:16.705Z,951.8620605
2022-08-26T20:36:17.156Z,951.9146118
2022-08-26T20:37:17.739Z,951.8504639
2022-08-26T20:38:21.437Z,951.8464966
2022-08-26T20:39:19.548Z,951.8834229
2022-08-26T20:40:20.118Z,951.8556519
2022-08-26T20:41:20.520Z,951.8643799
2022-08-26T20:42:21.061Z,951.9050293
2022-08-26T20:43:21.839Z,951.8737793
2022-08-26T20:44:22.284Z,951.8937988
2022-08-26T20:45:22.839Z,951.8954468
2022-08-26T20:46:25.035Z,951.8874512
2022-08-26T20:47:23.904Z,951.8504639
2022-08-26T20:48:25.416Z,951.8406982
2022-08-26T20:49:26.412Z,951.864502
2022-08-26T20:50:26.849Z,951.815918
2022-08-26T20:51:27.332Z,951.881897
2022-08-26T20:52:28.719Z,951.8723145
2022-08-26T20:53:30.092Z,951.8954468
2022-08-26T20:55:00.796Z,951.8856812
2022-08-26T20:56:01.551Z,951.9146118
2022-08-26T20:57:01.967Z,951.9342041
2022-08-26T20:58:02.439Z,951.9014282
2022-08-26T20:59:02.865Z,951.9584351
2022-08-26T21:00:04.449Z,951.9334106
2022-08-26T21:01:07.744Z,951.921936
2022-08-26T21:02:05.530Z,951.9477539
2022-08-26T21:03:05.975Z,951.9337769
2022-08-26T21:04:06.427Z,951.9213867
2022-08-26T21:05:06.939Z,951.9526367
2022-08-26T21:06:07.459Z,951.9570313
2022-08-26T21:07:07.882Z,951.9594727
2022-08-26T21:08:08.373Z,951.9880371
2022-08-26T21:09:09.706Z,951.9660645
2022-08-26T21:10:10.158Z,951.9726563
2022-08-26T21:11:10.690Z,951.9625854
2022-08-26T21:12:11.103Z,951.9781494
2022-08-26T21:13:11.774Z,951.9989624
2022-08-26T21:14:16.248Z,951.9874878
2022-08-26T21:15:12.639Z,951.9627075
2022-08-26T21:16:13.185Z,951.9651489
2022-08-26T21:17:14.219Z,951.9823608
2022-08-26T21:18:14.673Z,951.9260864
2022-08-26T21:19:15.728Z,951.9924316
2022-08-26T21:20:16.162Z,952.0144043
2022-08-26T21:21:16.638Z,951.9707642
2022-08-26T21:22:17.126Z,951.9997559
2022-08-26T21:23:17.571Z,952.0337524
2022-08-26T21:24:17.994Z,952.0063477
2022-08-26T21:25:18.432Z,952.0098267
2022-08-26T21:26:18.888Z,951.9951782
2022-08-26T21:27:23.051Z,952.0067749
2022-08-26T21:28:19.874Z,952.0306396
2022-08-26T21:29:21.217Z,952.053772
2022-08-26T21:30:21.683Z,952.0388794
2022-08-26T21:31:22.235Z,952.0240479
2022-08-26T21:32:22.634Z,952.0412598
2022-08-26T21:33:23.131Z,952.0342407
2022-08-26T21:34:23.595Z,952.0251465
2022-08-26T21:35:24.022Z,952.0211182
2022-08-26T21:36:24.460Z,952.0320435
2022-08-26T21:37:24.902Z,952.0384521
2022-08-26T21:38:26.019Z,952.0626831
2022-08-26T21:39:27.217Z,952.0706177
2022-08-26T21:40:27.771Z,952.09375
2022-08-26T21:41:28.067Z,952.1021729
2022-08-26T21:42:28.553Z,952.1204834
2022-08-26T21:44:00.425Z,952.1221924
2022-08-26T21:45:00.909Z,952.1154785
2022-08-26T21:46:01.368Z,952.1364136
2022-08-26T21:47:01.829Z,952.1275024
2022-08-26T21:48:02.322Z,952.1348267
2022-08-26T21:49:02.765Z,952.1104736
2022-08-26T21:50:03.953Z,952.0734253
2022-08-26T21:51:04.380Z,952.0933838
2022-08-26T21:52:04.827Z,952.071167
2022-08-26T21:53:05.978Z,952.0812378
2022-08-26T21:54:10.171Z,952.1135864
2022-08-26T21:55:09.045Z,952.1138916
2022-08-26T21:56:07.262Z,952.1331177
2022-08-26T21:57:07.692Z,952.1450195
2022-08-26T21:58:08.319Z,952.1376343
2022-08-26T21:59:08.644Z,952.0995483
2022-08-26T22:00:09.942Z,952.1451416
2022-08-26T22:01:10.421Z,952.1439209
2022-08-26T22:02:10.847Z,952.164856
2022-08-26T22:03:11.551Z,952.1477051
2022-08-26T22:04:11.980Z,952.1517944
2022-08-26T22:05:12.424Z,952.1842041
2022-08-26T22:06:12.856Z,952.2039185
2022-08-26T22:07:14.285Z,952.2203369
2022-08-26T22:08:14.716Z,952.1932983
2022-08-26T22:09:15.157Z,952.2426758
2022-08-26T22:10:15.626Z,952.2387695
2022-08-26T22:11:16.063Z,952.2155762
2022-08-26T22:12:17.248Z,952.237915
2022-08-26T22:13:17.721Z,952.2023926
2022-08-26T22:14:18.180Z,952.2253418
2022-08-26T22:15:18.625Z,952.2416382
2022-08-26T22:16:19.129Z,952.2160645
2022-08-26T22:17:19.531Z,952.2251587
2022-08-26T22:18:20.066Z,952.211853
2022-08-26T22:19:23.480Z,952.2091675
2022-08-26T22:20:21.730Z,952.2420044
2022-08-26T22:21:22.149Z,952.189209
2022-08-26T22:22:22.580Z,952.1826782
2022-08-26T22:23:22.969Z,952.2532959
2022-08-26T22:24:23.492Z,952.2525024
2022-08-26T22:25:23.936Z,952.201416
2022-08-26T22:26:25.851Z,952.2228394
2022-08-26T22:27:24.819Z,952.2698364
2022-08-26T22:28:25.203Z,952.2318726
2022-08-26T22:29:26.252Z,952.2581177
2022-08-26T22:30:26.744Z,952.2507935
2022-08-26T22:31:28.102Z,952.2237549
2022-08-26T22:32:27.653Z,952.2008057
2022-08-26T22:33:28.547Z,952.185791
2022-08-26T22:34:59.258Z,952.1676636
2022-08-26T22:35:59.763Z,952.1868896
2022-08-26T22:37:00.250Z,952.1422119
2022-08-26T22:38:00.764Z,952.1677856
2022-08-26T22:39:01.240Z,952.1661987
2022-08-26T22:40:02.518Z,952.2277832
2022-08-26T22:41:06.573Z,952.2393799
2022-08-26T22:42:03.396Z,952.2683105
2022-08-26T22:43:03.879Z,952.2550049
2022-08-26T22:44:04.320Z,952.3077393
2022-08-26T22:45:04.829Z,952.2770386
2022-08-26T22:46:05.392Z,952.3007813
2022-08-26T22:47:05.728Z,952.3386841
2022-08-26T22:48:06.258Z,952.3167114
2022-08-26T22:49:06.648Z,952.3289795
2022-08-26T22:50:08.028Z,952.3172607
2022-08-26T22:51:08.507Z,952.3256226
2022-08-26T22:52:09.750Z,952.3329468
2022-08-26T22:53:10.772Z,952.3247681
2022-08-26T22:54:11.501Z,952.317627
2022-08-26T22:55:12.760Z,952.3168945
2022-08-26T22:56:14.337Z,952.3554688
2022-08-26T22:57:14.876Z,952.3532715
2022-08-26T22:58:15.353Z,952.354126
2022-08-26T22:59:15.832Z,952.3154907
2022-08-26T23:00:17.011Z,952.3262329
2022-08-26T23:01:17.511Z,952.3222046
2022-08-26T23:02:18.029Z,952.3223267
2022-08-26T23:03:18.593Z,952.3328247
2022-08-26T23:04:19.039Z,952.3125
2022-08-26T23:05:19.561Z,952.2762451
2022-08-26T23:06:20.028Z,952.3032837
2022-08-26T23:07:20.511Z,952.2818604
2022-08-26T23:08:21.041Z,952.28125
2022-08-26T23:09:21.546Z,952.2645264
2022-08-26T23:10:23.017Z,952.2828369
2022-08-26T23:11:23.504Z,952.3057861
2022-08-26T23:12:23.967Z,952.2695313
2022-08-26T23:13:24.491Z,952.2941895
2022-08-26T23:14:24.977Z,952.2876587
2022-08-26T23:15:25.466Z,952.2912598
2022-08-26T23:16:25.979Z,952.2896729
2022-08-26T23:17:26.393Z,952.2509155
2022-08-26T23:18:26.857Z,952.2640381
2022-08-26T23:19:27.388Z,952.2750244
2022-08-26T23:20:58.823Z,952.2414551
2022-08-26T23:21:59.299Z,952.2636108
2022-08-26T23:23:00.751Z,952.2363892
2022-08-26T23:24:01.224Z,952.2859497
2022-08-26T23:25:01.743Z,952.2235107
2022-08-26T23:26:05.959Z,952.2192993
2022-08-26T23:27:02.719Z,952.2047119
2022-08-26T23:28:03.251Z,952.2196045
2022-08-26T23:29:03.760Z,952.2081909
2022-08-26T23:30:04.766Z,952.2263184
2022-08-26T23:31:05.233Z,952.2001343
2022-08-26T23:32:05.784Z,952.2090454
2022-08-26T23:33:06.377Z,952.1813965
2022-08-26T23:34:07.081Z,952.1829834
2022-08-26T23:35:07.553Z,952.1641235
2022-08-26T23:36:08.056Z,952.1418457
2022-08-26T23:37:08.536Z,952.1401367
2022-08-26T23:38:09.154Z,952.151123
2022-08-26T23:39:09.666Z,952.1322632
2022-08-26T23:40:10.873Z,952.0814209
2022-08-26T23:41:11.526Z,952.1136475
2022-08-26T23:42:11.982Z,952.0914307
2022-08-26T23:43:12.450Z,952.118042
2022-08-26T23:44:13.620Z,952.1146851
2022-08-26T23:45:14.107Z,952.1048584
2022-08-26T23:46:14.663Z,952.0982056
2022-08-26T23:47:15.077Z,952.0836792
2022-08-26T23:48:15.529Z,952.0911865
2022-08-26T23:49:16.262Z,952.0426636
2022-08-26T23:50:17.273Z,952.0318604
2022-08-26T23:51:17.802Z,952.0426636
2022-08-26T23:52:18.231Z,952.0684204
2022-08-26T23:53:18.697Z,952.0396118
2022-08-26T23:54:19.258Z,952.0504761
2022-08-26T23:55:19.756Z,952.0390625
2022-08-26T23:56:20.346Z,952.0217896
2022-08-26T23:57:20.812Z,952.010498
2022-08-26T23:58:21.298Z,952.0103149
2022-08-26T23:59:21.888Z,952.0153198
